createdAt,value
2022-09-26T00:00:07.986Z,5.50
2022-09-26T00:03:30.779Z,6.10
2022-09-26T00:06:33.655Z,7.70
2022-09-26T00:09:40.704Z,6.80
2022-09-26T00:12:43.646Z,7.40
2022-09-26T00:15:47.703Z,5.60
2022-09-26T00:18:52.544Z,5.60
2022-09-26T00:21:55.465Z,7.50
2022-09-26T00:24:58.239Z,7.10
2022-09-26T00:28:01.340Z,7.80
2022-09-26T00:31:13.368Z,7.90
2022-09-26T00:34:19.030Z,6.30
2022-09-26T00:37:22.602Z,6.50
2022-09-26T00:40:27.343Z,7.80
2022-09-26T00:43:53.500Z,7.40
2022-09-26T00:46:56.358Z,8.20
2022-09-26T00:50:04.165Z,8.00
2022-09-26T00:53:13.124Z,6.40
2022-09-26T00:56:26.662Z,7.10
2022-09-26T00:59:56.465Z,8.10
2022-09-26T01:02:59.277Z,8.60
2022-09-26T01:06:02.235Z,8.80
2022-09-26T01:09:10.004Z,8.80
2022-09-26T01:12:13.754Z,6.70
2022-09-26T01:15:18.299Z,7.60
2022-09-26T01:18:21.272Z,8.70
2022-09-26T01:21:39.398Z,8.50
2022-09-26T01:25:01.765Z,8.80
2022-09-26T01:28:23.305Z,7.90
2022-09-26T01:31:41.067Z,8.10
2022-09-26T01:35:08.471Z,8.70
2022-09-26T01:38:37.076Z,7.80
2022-09-26T01:42:07.784Z,6.60
2022-09-26T01:45:19.311Z,7.00
2022-09-26T01:48:33.226Z,8.70
2022-09-26T01:51:51.287Z,8.40
2022-09-26T01:55:06.186Z,6.30
2022-09-26T01:58:16.744Z,6.50
2022-09-26T02:01:23.383Z,7.40
2022-09-26T02:04:35.534Z,7.70
2022-09-26T02:08:02.177Z,8.00
2022-09-26T02:11:12.973Z,6.30
2022-09-26T02:14:27.493Z,6.70
2022-09-26T02:17:38.240Z,7.10
2022-09-26T02:20:46.209Z,7.50
2022-09-26T02:23:50.847Z,9.20
2022-09-26T02:26:54.266Z,6.20
2022-09-26T02:29:57.716Z,6.50
2022-09-26T02:33:00.688Z,7.70
2022-09-26T02:36:07.687Z,8.50
2022-09-26T02:39:11.385Z,7.90
2022-09-26T02:42:25.364Z,8.60
2022-09-26T02:45:40.540Z,6.10
2022-09-26T02:49:28.528Z,6.70
2022-09-26T02:53:15.009Z,7.20
2022-09-26T02:56:25.795Z,7.90
2022-09-26T02:59:53.904Z,8.70
2022-09-26T03:03:12.950Z,6.50
2022-09-26T03:09:24.211Z,8.10
2022-09-26T03:12:30.049Z,7.50
2022-09-26T03:15:36.844Z,6.60
2022-09-26T03:19:06.017Z,6.80
2022-09-26T03:22:10.128Z,8.10
2022-09-26T03:25:20.329Z,6.80
2022-09-26T03:28:23.154Z,6.30
2022-09-26T03:31:26.069Z,7.30
2022-09-26T03:34:28.952Z,7.40
2022-09-26T03:37:34.153Z,8.20
2022-09-26T03:40:37.217Z,6.30
2022-09-26T03:43:44.112Z,6.20
2022-09-26T03:46:47.496Z,6.60
2022-09-26T03:49:51.397Z,7.80
2022-09-26T03:52:55.199Z,6.80
2022-09-26T03:56:16.214Z,6.30
2022-09-26T03:59:19.203Z,6.70
2022-09-26T04:02:22.830Z,8.00
2022-09-26T04:05:25.872Z,8.30
2022-09-26T04:08:28.921Z,6.40
2022-09-26T04:11:31.759Z,6.30
2022-09-26T04:14:35.170Z,7.50
2022-09-26T04:17:38.026Z,7.00
2022-09-26T04:20:41.085Z,8.20
2022-09-26T04:23:44.869Z,6.60
2022-09-26T04:26:47.987Z,5.70
2022-09-26T04:29:50.857Z,7.40
2022-09-26T04:32:53.801Z,7.20
2022-09-26T04:36:09.663Z,8.10
2022-09-26T04:39:12.681Z,7.10
2022-09-26T04:42:15.719Z,6.80
2022-09-26T04:45:18.593Z,7.60
2022-09-26T04:48:21.859Z,8.10
2022-09-26T04:51:26.850Z,7.00
2022-09-26T04:54:29.607Z,6.90
2022-09-26T04:57:32.381Z,7.10
2022-09-26T05:00:35.256Z,9.10
2022-09-26T05:03:38.568Z,7.30
2022-09-26T05:06:41.362Z,7.30
2022-09-26T05:09:45.093Z,6.70
2022-09-26T05:12:48.360Z,6.80
2022-09-26T05:15:55.586Z,8.20
2022-09-26T05:18:58.762Z,9.20
2022-09-26T05:22:01.594Z,6.30
2022-09-26T05:25:23.506Z,6.20
2022-09-26T05:28:27.565Z,7.30
2022-09-26T05:31:37.423Z,8.50
2022-09-26T05:34:40.682Z,7.90
2022-09-26T05:37:43.619Z,6.80
2022-09-26T05:40:58.756Z,6.10
2022-09-26T05:44:01.986Z,8.20
2022-09-26T05:47:05.529Z,9.20
2022-09-26T05:50:11.625Z,8.10
2022-09-26T05:53:14.499Z,6.90
2022-09-26T05:56:19.758Z,7.20
2022-09-26T05:59:24.065Z,8.20
2022-09-26T06:02:26.964Z,9.00
2022-09-26T06:05:31.344Z,8.90
2022-09-26T06:08:36.268Z,7.80
2022-09-26T06:11:39.052Z,7.40
2022-09-26T06:14:46.897Z,8.30
2022-09-26T06:17:57.730Z,8.10
2022-09-26T06:21:02.462Z,6.00
2022-09-26T06:24:05.555Z,6.10
2022-09-26T06:27:08.543Z,6.40
2022-09-26T06:30:13.615Z,7.50
2022-09-26T06:33:17.124Z,6.40
2022-09-26T06:36:22.080Z,6.00
2022-09-26T06:39:31.597Z,5.60
2022-09-26T06:42:38.122Z,6.30
2022-09-26T06:45:41.040Z,7.10
2022-09-26T06:48:44.069Z,7.50
2022-09-26T06:51:49.160Z,5.40
2022-09-26T06:54:51.953Z,5.10
2022-09-26T06:57:54.746Z,7.00
2022-09-26T07:01:01.314Z,7.40
2022-09-26T07:04:04.765Z,5.30
2022-09-26T07:07:07.736Z,5.60
2022-09-26T07:10:11.142Z,6.00
2022-09-26T07:13:20.283Z,6.70
2022-09-26T07:16:23.447Z,4.90
2022-09-26T07:19:26.255Z,4.70
2022-09-26T07:22:29.053Z,5.50
2022-09-26T07:25:33.540Z,7.10
2022-09-26T07:28:36.877Z,5.10
2022-09-26T07:31:40.094Z,4.80
2022-09-26T07:34:44.123Z,4.70
2022-09-26T07:37:53.021Z,5.20
2022-09-26T07:40:55.812Z,5.60
2022-09-26T07:47:40.962Z,4.80
2022-09-26T07:50:46.208Z,4.90
2022-09-26T07:53:49.506Z,5.50
2022-09-26T07:56:53.171Z,5.30
2022-09-26T07:59:56.059Z,3.60
2022-09-26T08:03:01.561Z,3.80
2022-09-26T08:06:05.722Z,3.90
2022-09-26T08:09:09.044Z,4.60
2022-09-26T08:12:12.270Z,4.90
2022-09-26T08:15:16.263Z,3.10
2022-09-26T08:18:19.337Z,2.80
2022-09-26T08:21:22.551Z,3.50
2022-09-26T08:24:25.509Z,4.20
2022-09-26T08:27:33.207Z,3.40
2022-09-26T08:30:36.165Z,2.20
2022-09-26T08:33:39.155Z,2.00
2022-09-26T08:36:42.096Z,1.90
2022-09-26T08:39:45.130Z,1.60
2022-09-26T08:43:15.825Z,1.60
2022-09-26T08:46:45.131Z,1.50
2022-09-26T08:50:00.490Z,1.70
2022-09-26T08:53:29.683Z,1.60
2022-09-26T08:56:39.354Z,1.30
2022-09-26T08:59:46.274Z,1.80
2022-09-26T09:03:23.203Z,1.60
2022-09-26T09:06:28.134Z,0.60
2022-09-26T09:09:30.908Z,0.60
2022-09-26T09:12:55.294Z,0.80
2022-09-26T09:16:25.193Z,1.20
2022-09-26T09:19:34.375Z,1.00
2022-09-26T09:22:53.650Z,0.80
2022-09-26T09:29:58.164Z,1.50
2022-09-26T09:33:05.824Z,1.30
2022-09-26T09:36:15.227Z,1.50
2022-09-26T09:39:31.450Z,0.90
2022-09-26T09:42:44.900Z,1.30
2022-09-26T09:45:51.371Z,1.60
2022-09-26T09:49:20.892Z,1.90
2022-09-26T09:52:59.318Z,1.60
2022-09-26T09:56:40.150Z,1.00
2022-09-26T09:59:51.782Z,0.70
2022-09-26T10:03:28.035Z,0.90
2022-09-26T10:06:45.364Z,0.80
2022-09-26T10:09:52.031Z,1.10
2022-09-26T10:12:56.037Z,1.00
2022-09-26T10:16:05.549Z,0.90
2022-09-26T10:19:09.605Z,1.40
2022-09-26T10:22:27.405Z,1.20
2022-09-26T10:25:32.245Z,0.80
2022-09-26T10:28:48.454Z,1.20
2022-09-26T10:31:56.486Z,1.30
2022-09-26T10:35:19.910Z,1.20
2022-09-26T10:38:29.912Z,1.30
2022-09-26T10:41:39.216Z,1.40
2022-09-26T10:44:43.327Z,1.50
2022-09-26T10:47:51.480Z,0.90
2022-09-26T10:51:00.738Z,1.20
2022-09-26T10:54:10.510Z,1.10
2022-09-26T10:57:21.810Z,1.10
2022-09-26T11:00:33.932Z,0.80
2022-09-26T11:03:45.060Z,1.10
2022-09-26T11:06:49.877Z,1.20
2022-09-26T11:09:57.878Z,0.90
2022-09-26T11:13:06.471Z,0.60
2022-09-26T11:19:29.286Z,0.60
2022-09-26T11:22:40.085Z,0.70
2022-09-26T11:26:25.829Z,0.60
2022-09-26T11:29:38.200Z,0.60
2022-09-26T11:32:44.824Z,0.60
2022-09-26T11:36:02.850Z,0.70
2022-09-26T11:39:21.008Z,0.50
2022-09-26T11:42:56.933Z,0.60
2022-09-26T11:46:46.675Z,0.50
2022-09-26T11:50:35.891Z,0.70
2022-09-26T11:53:48.138Z,0.60
2022-09-26T11:57:01.745Z,0.70
2022-09-26T12:00:16.339Z,0.70
2022-09-26T12:03:37.325Z,0.50
2022-09-26T12:06:58.168Z,0.40
2022-09-26T12:10:42.643Z,0.60
2022-09-26T12:13:53.414Z,0.40
2022-09-26T12:17:12.582Z,0.50
2022-09-26T12:21:05.837Z,0.80
2022-09-26T12:24:33.004Z,0.60
2022-09-26T12:28:03.178Z,0.80
2022-09-26T12:31:21.175Z,0.80
2022-09-26T12:34:45.062Z,0.80
2022-09-26T12:38:25.519Z,0.70
2022-09-26T12:41:46.765Z,0.60
2022-09-26T12:45:42.949Z,0.70
2022-09-26T12:48:54.523Z,0.60
2022-09-26T12:52:31.625Z,0.70
2022-09-26T12:55:40.215Z,0.50
2022-09-26T12:58:57.729Z,0.70
2022-09-26T13:02:25.292Z,0.60
2022-09-26T13:05:50.942Z,0.90
2022-09-26T13:09:08.995Z,0.80
2022-09-26T13:12:42.657Z,0.80
2022-09-26T13:16:04.489Z,0.90
2022-09-26T13:19:25.593Z,1.50
2022-09-26T13:22:41.454Z,1.80
2022-09-26T13:25:52.743Z,2.00
2022-09-26T13:29:17.933Z,1.90
2022-09-26T13:32:35.010Z,1.90
2022-09-26T13:35:47.517Z,2.20
2022-09-26T13:38:56.493Z,1.40
2022-09-26T13:42:18.082Z,1.70
2022-09-26T13:45:30.151Z,1.30
2022-09-26T13:48:49.153Z,1.00
2022-09-26T13:55:20.248Z,1.00
2022-09-26T13:58:26.592Z,1.10
2022-09-26T14:01:29.540Z,0.90
2022-09-26T14:04:36.768Z,0.80
2022-09-26T14:08:01.618Z,0.80
2022-09-26T14:11:14.982Z,0.70
2022-09-26T14:14:24.222Z,1.10
2022-09-26T14:17:42.188Z,1.40
2022-09-26T14:21:12.972Z,1.00
2022-09-26T14:24:27.615Z,0.50
2022-09-26T14:27:36.588Z,1.10
2022-09-26T14:30:39.496Z,0.70
2022-09-26T14:33:44.397Z,0.90
2022-09-26T14:36:49.553Z,0.70
2022-09-26T14:40:06.438Z,0.80
2022-09-26T14:43:18.746Z,0.90
2022-09-26T14:46:26.287Z,1.10
2022-09-26T14:49:29.500Z,0.90
2022-09-26T14:52:34.328Z,0.80
2022-09-26T14:55:53.465Z,1.10
2022-09-26T14:59:27.720Z,1.10
2022-09-26T15:02:41.808Z,0.70
2022-09-26T15:05:46.319Z,0.60
2022-09-26T15:08:49.686Z,0.70
2022-09-26T15:11:58.352Z,0.70
2022-09-26T15:15:05.230Z,0.80
2022-09-26T15:18:37.619Z,0.80
2022-09-26T15:21:48.578Z,0.50
2022-09-26T15:25:06.727Z,0.60
2022-09-26T15:28:10.180Z,1.20
2022-09-26T15:31:39.596Z,0.80
2022-09-26T15:37:48.322Z,0.70
2022-09-26T15:41:02.429Z,0.80
2022-09-26T15:44:25.716Z,0.70
2022-09-26T15:47:31.925Z,0.90
2022-09-26T15:50:42.408Z,0.90
2022-09-26T15:53:48.556Z,0.70
2022-09-26T15:56:53.033Z,1.00
2022-09-26T15:59:59.911Z,0.80
2022-09-26T16:03:18.200Z,1.00
2022-09-26T16:06:25.664Z,1.10
2022-09-26T16:09:34.372Z,1.00
2022-09-26T16:12:40.107Z,0.90
2022-09-26T16:15:45.012Z,0.70
2022-09-26T16:18:57.698Z,0.90
2022-09-26T16:22:21.383Z,0.80
2022-09-26T16:25:47.948Z,1.10
2022-09-26T16:28:55.327Z,1.00
2022-09-26T16:31:59.673Z,1.00
2022-09-26T16:35:19.768Z,0.90
2022-09-26T16:38:25.649Z,0.90
2022-09-26T16:42:01.075Z,1.20
2022-09-26T16:44:58.104Z,1.00
2022-09-26T16:48:01.262Z,1.00
2022-09-26T16:51:19.125Z,0.90
2022-09-26T16:54:22.030Z,1.10
2022-09-26T16:57:29.120Z,1.30
2022-09-26T17:00:53.134Z,1.20
2022-09-26T17:03:57.179Z,1.50
2022-09-26T17:07:16.567Z,2.10
2022-09-26T17:10:23.333Z,2.00
2022-09-26T17:13:34.189Z,2.20
2022-09-26T17:16:50.590Z,1.90
2022-09-26T17:19:59.449Z,2.20
2022-09-26T17:23:27.737Z,2.10
2022-09-26T17:26:35.524Z,2.30
2022-09-26T17:29:51.958Z,2.10
2022-09-26T17:32:55.056Z,1.90
2022-09-26T17:36:01.890Z,2.00
2022-09-26T17:39:07.983Z,2.10
2022-09-26T17:42:11.464Z,2.40
2022-09-26T17:45:15.907Z,2.50
2022-09-26T17:48:27.664Z,2.40
2022-09-26T17:51:31.441Z,2.90
2022-09-26T17:54:40.988Z,1.80
2022-09-26T17:57:43.895Z,2.20
2022-09-26T18:00:51.336Z,2.50
2022-09-26T18:04:01.141Z,2.50
2022-09-26T18:07:04.741Z,2.90
2022-09-26T18:10:19.612Z,2.40
2022-09-26T18:13:26.879Z,2.60
2022-09-26T18:16:29.807Z,3.00
2022-09-26T18:19:35.355Z,2.80
2022-09-26T18:22:38.208Z,3.50
2022-09-26T18:25:43.737Z,3.30
2022-09-26T18:28:46.564Z,3.40
2022-09-26T18:31:49.830Z,3.50
2022-09-26T18:34:53.956Z,3.50
2022-09-26T18:37:56.928Z,3.60
2022-09-26T18:40:59.997Z,3.50
2022-09-26T18:44:03.274Z,4.20
2022-09-26T18:47:14.208Z,4.00
2022-09-26T18:50:49.807Z,3.40
2022-09-26T18:53:52.659Z,3.60
2022-09-26T18:57:14.454Z,4.10
2022-09-26T19:00:17.257Z,4.10
2022-09-26T19:03:22.604Z,3.80
2022-09-26T19:06:32.309Z,4.20
2022-09-26T19:09:36.380Z,4.60
2022-09-26T19:12:39.765Z,4.40
2022-09-26T19:15:42.637Z,4.50
2022-09-26T19:18:46.271Z,4.00
2022-09-26T19:21:57.150Z,4.00
2022-09-26T19:25:01.708Z,4.20
2022-09-26T19:28:04.564Z,3.90
2022-09-26T19:31:09.149Z,4.00
2022-09-26T19:34:16.691Z,4.60
2022-09-26T19:37:20.100Z,4.40
2022-09-26T19:40:24.871Z,3.60
2022-09-26T19:43:28.259Z,3.00
2022-09-26T19:46:31.861Z,4.00
2022-09-26T19:49:36.849Z,3.50
2022-09-26T19:52:40.059Z,3.80
2022-09-26T19:55:47.821Z,4.10
2022-09-26T19:58:53.600Z,4.00
2022-09-26T20:01:56.715Z,4.20
2022-09-26T20:05:02.912Z,3.90
2022-09-26T20:08:06.261Z,3.70
2022-09-26T20:11:09.510Z,4.40
2022-09-26T20:14:25.271Z,3.90
2022-09-26T20:17:30.868Z,3.10
2022-09-26T20:20:36.264Z,3.30
2022-09-26T20:23:43.986Z,3.90
2022-09-26T20:26:48.096Z,4.30
2022-09-26T20:30:10.148Z,4.80
2022-09-26T20:33:13.524Z,4.50
2022-09-26T20:36:23.006Z,4.60
2022-09-26T20:39:26.855Z,4.30
2022-09-26T20:42:39.086Z,4.60
2022-09-26T20:45:45.182Z,4.80
2022-09-26T20:48:54.048Z,3.90
2022-09-26T20:51:58.755Z,3.70
2022-09-26T20:55:02.605Z,4.00
2022-09-26T20:58:06.338Z,5.00
2022-09-26T21:01:13.873Z,4.40
2022-09-26T21:04:18.971Z,4.10
2022-09-26T21:07:23.352Z,5.00
2022-09-26T21:10:32.710Z,5.10
2022-09-26T21:13:35.719Z,4.40
2022-09-26T21:16:44.750Z,4.10
2022-09-26T21:19:48.342Z,3.20
2022-09-26T21:22:51.624Z,4.00
2022-09-26T21:25:54.809Z,4.30
2022-09-26T21:28:58.303Z,4.40
2022-09-26T21:32:04.797Z,4.70
2022-09-26T21:35:09.135Z,5.10
2022-09-26T21:38:12.356Z,4.40
2022-09-26T21:41:16.824Z,3.90
2022-09-26T21:44:30.849Z,4.40
2022-09-26T21:47:36.848Z,4.60
2022-09-26T21:50:43.585Z,4.00
2022-09-26T21:53:56.383Z,4.40
2022-09-26T21:57:11.953Z,3.50
2022-09-26T22:00:15.717Z,3.50
2022-09-26T22:03:18.971Z,3.90
2022-09-26T22:06:21.830Z,4.20
2022-09-26T22:09:25.860Z,4.60
2022-09-26T22:12:28.665Z,4.50
2022-09-26T22:15:31.625Z,4.40
2022-09-26T22:18:35.447Z,3.40
2022-09-26T22:21:38.278Z,3.40
2022-09-26T22:24:41.237Z,4.20
2022-09-26T22:27:44.167Z,4.00
2022-09-26T22:30:47.191Z,4.70
2022-09-26T22:33:50.115Z,4.60
2022-09-26T22:36:53.114Z,4.80
2022-09-26T22:39:55.884Z,3.60
2022-09-26T22:42:58.860Z,3.40
2022-09-26T22:46:03.391Z,4.40
2022-09-26T22:49:06.454Z,4.50
2022-09-26T22:52:09.383Z,4.30
2022-09-26T22:55:12.353Z,4.70
2022-09-26T22:58:15.250Z,4.70
2022-09-26T23:01:27.517Z,3.50
2022-09-26T23:04:47.139Z,3.60
2022-09-26T23:07:53.801Z,4.20
2022-09-26T23:10:57.076Z,4.30
2022-09-26T23:14:00.076Z,4.60
2022-09-26T23:17:03.414Z,4.70
2022-09-26T23:20:07.280Z,4.40
2022-09-26T23:23:12.332Z,3.40
2022-09-26T23:26:23.599Z,4.00
2022-09-26T23:29:26.860Z,4.30
2022-09-26T23:32:29.863Z,4.40
2022-09-26T23:35:32.860Z,4.50
2022-09-26T23:38:39.321Z,4.50
2022-09-26T23:41:42.283Z,3.50
2022-09-26T23:44:45.149Z,3.50
2022-09-26T23:47:48.549Z,3.70
2022-09-26T23:50:51.441Z,4.50
2022-09-26T23:53:55.163Z,4.60
2022-09-26T23:56:58.238Z,4.90
